createdAt,value
2024-05-09T00:00:26.387Z,7.93
2024-05-09T00:01:35.301Z,7.65
2024-05-09T00:02:37.375Z,7.65
2024-05-09T00:03:41.388Z,8.38
2024-05-09T00:04:43.420Z,7.60
2024-05-09T00:05:45.564Z,8.23
2024-05-09T00:06:47.482Z,8.02
2024-05-09T00:07:49.378Z,6.97
2024-05-09T00:08:53.472Z,7.38
2024-05-09T00:09:55.395Z,6.03
2024-05-09T00:10:57.331Z,8.05
2024-05-09T00:11:59.513Z,7.53
2024-05-09T00:13:02.637Z,7.90
2024-05-09T00:14:07.029Z,8.00
2024-05-09T00:15:09.233Z,7.25
2024-05-09T00:16:13.331Z,7.55
2024-05-09T00:17:15.339Z,8.93
2024-05-09T00:18:20.162Z,8.05
2024-05-09T00:19:22.276Z,8.02
2024-05-09T00:20:35.049Z,8.70
2024-05-09T00:21:43.867Z,7.57
2024-05-09T00:22:48.182Z,7.25
2024-05-09T00:23:50.077Z,7.45
2024-05-09T00:24:51.977Z,8.25
2024-05-09T00:25:56.408Z,8.68
2024-05-09T00:26:58.386Z,8.90
2024-05-09T00:28:03.009Z,8.32
2024-05-09T00:29:04.991Z,9.00
2024-05-09T00:30:14.271Z,9.10
2024-05-09T00:31:19.563Z,8.18
2024-05-09T00:32:23.919Z,9.05
2024-05-09T00:33:26.187Z,8.27
2024-05-09T00:34:30.553Z,8.88
2024-05-09T00:35:32.619Z,9.23
2024-05-09T00:36:36.630Z,8.70
2024-05-09T00:37:38.569Z,9.57
2024-05-09T00:38:42.676Z,9.35
2024-05-09T00:39:44.707Z,9.50
2024-05-09T00:40:46.634Z,8.77
2024-05-09T00:41:48.524Z,9.23
2024-05-09T00:42:52.758Z,9.18
2024-05-09T00:43:54.771Z,8.57
2024-05-09T00:44:58.851Z,8.45
2024-05-09T00:46:02.971Z,8.98
2024-05-09T00:47:05.887Z,15.32
2024-05-09T00:48:10.179Z,37.13
2024-05-09T00:49:13.221Z,48.25
2024-05-09T00:50:19.436Z,34.85
2024-05-09T00:52:32.761Z,17.02
2024-05-09T00:53:36.948Z,15.05
2024-05-09T00:54:39.046Z,11.90
2024-05-09T00:55:43.846Z,11.13
2024-05-09T00:56:46.283Z,9.20
2024-05-09T00:57:48.274Z,9.90
2024-05-09T00:58:51.458Z,9.00
2024-05-09T00:59:56.715Z,9.55
2024-05-09T01:02:22.189Z,8.90
2024-05-09T01:03:27.482Z,10.32
2024-05-09T01:04:29.612Z,10.38
2024-05-09T01:05:32.377Z,9.60
2024-05-09T01:06:34.507Z,10.18
2024-05-09T01:07:36.360Z,10.30
2024-05-09T01:08:40.794Z,10.00
2024-05-09T01:09:42.768Z,9.93
2024-05-09T01:10:46.160Z,10.27
2024-05-09T01:11:50.057Z,9.23
2024-05-09T01:12:52.184Z,9.32
2024-05-09T01:13:54.706Z,9.82
2024-05-09T01:14:59.429Z,10.07
2024-05-09T01:16:01.458Z,10.48
2024-05-09T01:17:03.665Z,9.80
2024-05-09T01:18:11.528Z,10.75
2024-05-09T01:19:26.710Z,10.15
2024-05-09T01:20:39.869Z,10.52
2024-05-09T01:21:47.856Z,10.15
2024-05-09T01:22:54.158Z,10.25
2024-05-09T01:23:59.435Z,10.25
2024-05-09T01:25:01.419Z,9.57
2024-05-09T01:26:03.290Z,10.50
2024-05-09T01:27:05.295Z,9.27
2024-05-09T01:28:07.525Z,8.82
2024-05-09T01:29:09.477Z,9.88
2024-05-09T01:30:17.252Z,9.48
2024-05-09T01:31:23.056Z,9.95
2024-05-09T01:32:27.233Z,9.80
2024-05-09T01:33:31.674Z,9.57
2024-05-09T01:34:33.865Z,9.88
2024-05-09T01:35:35.861Z,9.45
2024-05-09T01:36:37.725Z,9.68
2024-05-09T01:37:41.812Z,9.98
2024-05-09T01:38:43.779Z,10.27
2024-05-09T01:39:47.817Z,10.18
2024-05-09T01:40:50.233Z,9.80
2024-05-09T01:41:54.926Z,9.80
2024-05-09T01:42:56.894Z,10.43
2024-05-09T01:43:58.797Z,9.90
2024-05-09T01:45:05.294Z,9.80
2024-05-09T01:46:16.731Z,10.38
2024-05-09T01:47:21.048Z,10.30
2024-05-09T01:48:27.448Z,10.63
2024-05-09T01:49:29.646Z,9.10
2024-05-09T01:50:38.413Z,10.65
2024-05-09T01:51:43.162Z,10.05
2024-05-09T01:53:49.458Z,9.73
2024-05-09T01:54:51.285Z,10.50
2024-05-09T01:55:53.152Z,10.75
2024-05-09T01:56:55.076Z,10.98
2024-05-09T01:57:57.137Z,10.18
2024-05-09T01:59:01.963Z,10.43
2024-05-09T02:01:56.829Z,10.20
2024-05-09T02:03:14.800Z,9.95
2024-05-09T02:04:19.091Z,9.60
2024-05-09T02:05:21.258Z,9.30
2024-05-09T02:06:23.295Z,9.38
2024-05-09T02:07:25.564Z,8.82
2024-05-09T02:08:27.533Z,10.80
2024-05-09T02:09:29.480Z,9.82
2024-05-09T02:10:33.079Z,9.88
2024-05-09T02:11:43.814Z,10.38
2024-05-09T02:12:45.978Z,11.35
2024-05-09T02:13:47.811Z,9.43
2024-05-09T02:14:51.735Z,9.25
2024-05-09T02:15:56.522Z,10.10
2024-05-09T02:16:58.484Z,10.10
2024-05-09T02:18:00.762Z,10.85
2024-05-09T02:19:07.605Z,10.25
2024-05-09T02:20:13.276Z,10.50
2024-05-09T02:21:20.368Z,10.13
2024-05-09T02:22:22.314Z,9.45
2024-05-09T02:23:24.277Z,11.43
2024-05-09T02:24:26.213Z,11.75
2024-05-09T02:25:30.626Z,10.02
2024-05-09T02:26:32.590Z,10.23
2024-05-09T02:27:36.684Z,10.07
2024-05-09T02:28:38.728Z,10.55
2024-05-09T02:29:40.631Z,10.57
2024-05-09T02:30:42.824Z,10.23
2024-05-09T02:31:49.680Z,11.00
2024-05-09T02:32:51.741Z,11.52
2024-05-09T02:33:54.067Z,11.00
2024-05-09T02:34:56.167Z,9.57
2024-05-09T02:35:58.132Z,11.18
2024-05-09T02:37:05.132Z,10.30
2024-05-09T02:38:08.751Z,11.50
2024-05-09T02:39:10.695Z,11.07
2024-05-09T02:40:14.906Z,10.70
2024-05-09T02:41:22.539Z,10.57
2024-05-09T02:42:24.878Z,10.80
2024-05-09T02:43:29.418Z,10.85
2024-05-09T02:44:33.662Z,10.32
2024-05-09T02:45:38.313Z,10.35
2024-05-09T02:46:40.165Z,10.30
2024-05-09T02:47:42.271Z,10.70
2024-05-09T02:48:44.360Z,10.10
2024-05-09T02:49:46.314Z,10.50
2024-05-09T02:50:48.451Z,10.88
2024-05-09T02:51:50.320Z,10.20
2024-05-09T02:52:52.266Z,10.52
2024-05-09T02:53:54.495Z,10.77
2024-05-09T02:54:56.393Z,9.90
2024-05-09T02:55:58.209Z,9.80
2024-05-09T02:57:00.208Z,10.10
2024-05-09T02:58:04.914Z,10.75
2024-05-09T02:59:06.871Z,10.70
2024-05-09T03:00:15.200Z,11.30
2024-05-09T03:01:20.825Z,11.38
2024-05-09T03:02:22.804Z,10.95
2024-05-09T03:03:25.255Z,11.13
2024-05-09T03:04:27.504Z,11.98
2024-05-09T03:05:29.492Z,11.50
2024-05-09T03:06:31.451Z,11.32
2024-05-09T03:07:33.395Z,12.15
2024-05-09T03:08:40.050Z,11.68
2024-05-09T03:09:50.683Z,11.18
2024-05-09T03:10:52.650Z,11.38
2024-05-09T03:11:57.568Z,11.48
2024-05-09T03:12:59.785Z,12.02
2024-05-09T03:14:02.495Z,11.40
2024-05-09T03:15:07.738Z,10.73
2024-05-09T03:16:09.803Z,12.02
2024-05-09T03:17:11.910Z,10.73
2024-05-09T03:18:15.208Z,11.20
2024-05-09T03:19:17.580Z,11.00
2024-05-09T03:20:23.950Z,11.50
2024-05-09T03:21:29.676Z,11.40
2024-05-09T03:22:31.678Z,11.65
2024-05-09T03:23:33.658Z,11.88
2024-05-09T03:24:35.721Z,11.13
2024-05-09T03:25:38.638Z,11.20
2024-05-09T03:26:44.345Z,11.07
2024-05-09T03:27:48.782Z,11.43
2024-05-09T03:28:50.868Z,11.90
2024-05-09T03:29:52.809Z,11.48
2024-05-09T03:30:54.741Z,11.52
2024-05-09T03:31:57.041Z,11.32
2024-05-09T03:33:01.405Z,11.18
2024-05-09T03:34:03.604Z,11.45
2024-05-09T03:35:06.056Z,11.85
2024-05-09T03:36:11.122Z,11.38
2024-05-09T03:37:14.435Z,11.70
2024-05-09T03:38:16.490Z,11.48
2024-05-09T03:39:18.600Z,11.90
2024-05-09T03:40:23.840Z,11.93
2024-05-09T03:41:28.696Z,11.63
2024-05-09T03:42:30.800Z,11.50
2024-05-09T03:43:32.653Z,11.70
2024-05-09T03:44:36.917Z,11.27
2024-05-09T03:45:38.801Z,11.32
2024-05-09T03:46:41.487Z,12.45
2024-05-09T03:47:43.914Z,10.55
2024-05-09T03:48:46.167Z,11.02
2024-05-09T03:49:49.240Z,12.30
2024-05-09T03:50:51.357Z,11.98
2024-05-09T03:51:53.212Z,11.88
2024-05-09T03:53:01.216Z,11.88
2024-05-09T03:54:05.577Z,12.00
2024-05-09T03:55:08.975Z,12.25
2024-05-09T03:56:10.979Z,12.90
2024-05-09T03:57:12.954Z,11.05
2024-05-09T03:58:14.974Z,11.63
2024-05-09T03:59:16.920Z,12.10
2024-05-09T04:02:29.504Z,11.43
2024-05-09T04:03:32.771Z,12.23
2024-05-09T04:04:35.048Z,12.50
2024-05-09T04:05:38.146Z,12.38
2024-05-09T04:06:40.387Z,12.30
2024-05-09T04:07:45.493Z,12.38
2024-05-09T04:08:47.584Z,12.07
2024-05-09T04:09:49.591Z,11.20
2024-05-09T04:10:52.017Z,11.45
2024-05-09T04:11:54.099Z,11.18
2024-05-09T04:12:56.245Z,11.43
2024-05-09T04:13:58.285Z,12.18
2024-05-09T04:15:00.190Z,10.55
2024-05-09T04:16:02.733Z,12.65
2024-05-09T04:17:05.024Z,11.70
2024-05-09T04:18:07.337Z,11.88
2024-05-09T04:19:09.637Z,12.05
2024-05-09T04:20:21.323Z,12.05
2024-05-09T04:21:31.296Z,12.73
2024-05-09T04:22:33.342Z,11.63
2024-05-09T04:23:38.069Z,11.85
2024-05-09T04:24:40.076Z,11.45
2024-05-09T04:25:43.722Z,9.38
2024-05-09T04:26:45.722Z,11.27
2024-05-09T04:27:50.180Z,10.63
2024-05-09T04:28:52.280Z,10.52
2024-05-09T04:29:55.844Z,10.32
2024-05-09T04:30:57.747Z,10.73
2024-05-09T04:32:02.037Z,9.90
2024-05-09T04:33:04.145Z,9.88
2024-05-09T04:34:06.335Z,10.43
2024-05-09T04:35:08.792Z,10.00
2024-05-09T04:36:10.669Z,10.27
2024-05-09T04:37:12.598Z,9.95
2024-05-09T04:38:15.561Z,10.27
2024-05-09T04:39:17.816Z,10.88
2024-05-09T04:40:28.142Z,10.98
2024-05-09T04:41:35.206Z,10.45
2024-05-09T04:42:39.545Z,9.90
2024-05-09T04:43:41.697Z,10.30
2024-05-09T04:44:45.839Z,10.93
2024-05-09T04:45:47.889Z,10.77
2024-05-09T04:46:52.046Z,11.48
2024-05-09T04:47:57.148Z,10.88
2024-05-09T04:48:59.285Z,11.73
2024-05-09T04:50:01.491Z,12.38
2024-05-09T04:51:07.011Z,11.55
2024-05-09T04:52:09.002Z,12.10
2024-05-09T04:53:16.018Z,11.30
2024-05-09T04:54:26.256Z,11.32
2024-05-09T04:55:36.219Z,11.80
2024-05-09T04:56:38.287Z,11.48
2024-05-09T04:57:40.298Z,11.23
2024-05-09T04:58:42.167Z,11.55
2024-05-09T04:59:44.528Z,10.88
2024-05-09T05:00:46.577Z,11.52
2024-05-09T05:01:48.737Z,11.65
2024-05-09T05:02:50.694Z,10.73
2024-05-09T05:03:55.983Z,12.40
2024-05-09T05:04:59.471Z,29.48
2024-05-09T05:06:01.674Z,32.40
2024-05-09T05:07:06.776Z,28.88
2024-05-09T05:08:12.613Z,30.67
2024-05-09T05:09:14.763Z,25.75
2024-05-09T05:10:25.091Z,32.40
2024-05-09T05:11:31.348Z,31.38
2024-05-09T05:12:54.322Z,28.73
2024-05-09T05:13:56.420Z,15.98
2024-05-09T05:15:00.557Z,12.27
2024-05-09T05:16:02.495Z,12.32
2024-05-09T05:17:05.214Z,10.63
2024-05-09T05:18:07.321Z,10.50
2024-05-09T05:19:12.012Z,10.48
2024-05-09T05:20:24.533Z,11.20
2024-05-09T05:21:33.083Z,10.77
2024-05-09T05:22:34.997Z,10.73
2024-05-09T05:23:37.162Z,10.80
2024-05-09T05:24:41.583Z,10.10
2024-05-09T05:25:43.909Z,10.88
2024-05-09T05:26:46.176Z,10.05
2024-05-09T05:27:48.107Z,9.93
2024-05-09T05:28:51.062Z,10.73
2024-05-09T05:29:53.097Z,10.90
2024-05-09T05:30:54.985Z,10.07
2024-05-09T05:31:56.921Z,10.10
2024-05-09T05:32:58.952Z,10.98
2024-05-09T05:34:00.970Z,10.52
2024-05-09T05:35:02.985Z,10.23
2024-05-09T05:36:05.285Z,10.75
2024-05-09T05:37:07.189Z,10.32
2024-05-09T05:38:10.452Z,10.60
2024-05-09T05:39:12.585Z,11.10
2024-05-09T05:40:24.726Z,10.43
2024-05-09T05:41:30.461Z,10.95
2024-05-09T05:42:32.507Z,10.73
2024-05-09T05:43:34.431Z,9.95
2024-05-09T05:44:36.341Z,10.05
2024-05-09T05:45:39.273Z,10.23
2024-05-09T05:46:43.681Z,10.98
2024-05-09T05:47:48.024Z,10.50
2024-05-09T05:48:50.379Z,10.55
2024-05-09T05:49:52.466Z,9.40
2024-05-09T05:51:01.127Z,10.20
2024-05-09T05:52:04.944Z,10.10
2024-05-09T05:53:08.022Z,10.50
2024-05-09T05:54:10.625Z,10.98
2024-05-09T05:55:12.967Z,10.10
2024-05-09T05:56:14.845Z,10.23
2024-05-09T05:57:17.024Z,11.30
2024-05-09T05:58:22.516Z,10.13
2024-05-09T05:59:24.480Z,10.75
2024-05-09T06:00:34.157Z,10.23
2024-05-09T06:01:39.796Z,10.35
2024-05-09T06:02:44.332Z,10.50
2024-05-09T06:03:46.542Z,10.50
2024-05-09T06:04:51.820Z,10.68
2024-05-09T06:05:53.946Z,10.50
2024-05-09T06:06:55.862Z,10.60
2024-05-09T06:08:00.319Z,9.52
2024-05-09T06:09:02.520Z,9.93
2024-05-09T06:10:09.285Z,10.15
2024-05-09T06:11:16.650Z,10.38
2024-05-09T06:12:18.704Z,10.30
2024-05-09T06:13:25.413Z,10.18
2024-05-09T06:14:27.515Z,9.95
2024-05-09T06:15:29.505Z,10.70
2024-05-09T06:16:31.607Z,10.25
2024-05-09T06:17:34.784Z,11.35
2024-05-09T06:18:41.735Z,11.18
2024-05-09T06:19:43.761Z,10.27
2024-05-09T06:20:46.086Z,9.85
2024-05-09T06:21:48.270Z,10.73
2024-05-09T06:22:52.625Z,10.63
2024-05-09T06:23:54.781Z,10.23
2024-05-09T06:24:56.762Z,10.57
2024-05-09T06:25:58.716Z,11.23
2024-05-09T06:27:01.420Z,11.10
2024-05-09T06:28:04.126Z,11.70
2024-05-09T06:29:06.026Z,12.18
2024-05-09T06:30:12.212Z,11.48
2024-05-09T06:31:22.873Z,11.70
2024-05-09T06:32:24.999Z,10.70
2024-05-09T06:33:27.257Z,11.60
2024-05-09T06:34:29.932Z,11.95
2024-05-09T06:35:32.007Z,11.55
2024-05-09T06:36:33.987Z,11.52
2024-05-09T06:37:36.477Z,11.57
2024-05-09T06:38:41.410Z,11.77
2024-05-09T06:39:45.996Z,11.10
2024-05-09T06:40:47.937Z,11.65
2024-05-09T06:41:50.221Z,11.40
2024-05-09T06:42:54.546Z,10.95
2024-05-09T06:43:56.448Z,11.32
2024-05-09T06:44:58.285Z,12.02
2024-05-09T06:46:00.222Z,11.43
2024-05-09T06:47:04.674Z,11.77
2024-05-09T06:48:07.740Z,11.82
2024-05-09T06:49:13.734Z,11.10
2024-05-09T06:50:23.392Z,10.65
2024-05-09T06:51:29.118Z,11.32
2024-05-09T06:52:31.112Z,10.43
2024-05-09T06:53:33.196Z,11.02
2024-05-09T06:54:35.763Z,11.68
2024-05-09T06:55:38.171Z,11.65
2024-05-09T06:56:40.203Z,11.23
2024-05-09T06:57:45.332Z,11.32
2024-05-09T06:58:50.758Z,12.10
2024-05-09T06:59:52.724Z,11.55
2024-05-09T07:02:13.655Z,12.05
2024-05-09T07:03:21.295Z,12.13
2024-05-09T07:04:23.460Z,11.23
2024-05-09T07:05:25.744Z,11.82
2024-05-09T07:06:27.934Z,11.65
2024-05-09T07:07:29.788Z,12.40
2024-05-09T07:08:31.935Z,11.65
2024-05-09T07:09:37.529Z,11.60
2024-05-09T07:10:41.699Z,11.90
2024-05-09T07:11:46.158Z,11.52
2024-05-09T07:12:48.096Z,11.93
2024-05-09T07:13:52.456Z,11.38
2024-05-09T07:14:55.071Z,10.43
2024-05-09T07:15:57.023Z,11.60
2024-05-09T07:16:59.160Z,10.90
2024-05-09T07:18:20.370Z,11.50
2024-05-09T07:19:23.047Z,11.50
2024-05-09T07:20:33.729Z,10.85
2024-05-09T07:21:36.930Z,12.07
2024-05-09T07:22:41.251Z,10.70
2024-05-09T07:23:45.415Z,11.10
2024-05-09T07:24:48.796Z,10.68
2024-05-09T07:25:50.817Z,11.23
2024-05-09T07:26:52.684Z,11.50
2024-05-09T07:27:57.067Z,11.55
2024-05-09T07:28:59.062Z,11.32
2024-05-09T07:30:00.980Z,10.75
2024-05-09T07:31:02.940Z,10.82
2024-05-09T07:32:06.812Z,10.32
2024-05-09T07:33:15.729Z,10.98
2024-05-09T07:34:18.047Z,11.30
2024-05-09T07:35:22.537Z,11.13
2024-05-09T07:36:27.704Z,11.07
2024-05-09T07:37:29.583Z,10.70
2024-05-09T07:38:31.550Z,10.85
2024-05-09T07:39:35.948Z,10.98
2024-05-09T07:40:38.765Z,9.60
2024-05-09T07:41:43.359Z,10.98
2024-05-09T07:42:47.402Z,10.73
2024-05-09T07:43:49.374Z,10.38
2024-05-09T07:44:51.498Z,10.90
2024-05-09T07:45:56.024Z,11.00
2024-05-09T07:53:32.762Z,10.35
2024-05-09T07:53:57.258Z,10.27
2024-05-09T07:55:01.889Z,10.05
2024-05-09T07:56:04.217Z,10.38
2024-05-09T07:57:06.265Z,9.77
2024-05-09T07:58:08.331Z,10.75
2024-05-09T07:59:10.209Z,10.05
2024-05-09T08:00:17.217Z,11.07
2024-05-09T08:01:20.529Z,9.90
2024-05-09T08:02:24.416Z,10.35
2024-05-09T08:03:26.575Z,10.10
2024-05-09T08:04:28.736Z,10.95
2024-05-09T08:05:30.990Z,10.80
2024-05-09T08:06:33.649Z,10.40
2024-05-09T08:07:37.613Z,11.10
2024-05-09T08:08:39.537Z,10.60
2024-05-09T08:09:41.501Z,9.77
2024-05-09T08:10:43.781Z,9.80
2024-05-09T08:11:45.873Z,10.20
2024-05-09T08:12:47.870Z,10.10
2024-05-09T08:13:49.952Z,9.93
2024-05-09T08:14:53.089Z,10.32
2024-05-09T08:15:54.998Z,10.30
2024-05-09T08:16:59.615Z,9.98
2024-05-09T08:18:01.808Z,10.43
2024-05-09T08:19:07.190Z,9.90
2024-05-09T08:20:15.851Z,8.98
2024-05-09T08:21:22.722Z,9.63
2024-05-09T08:22:24.561Z,9.60
2024-05-09T08:23:26.614Z,9.15
2024-05-09T08:24:28.509Z,9.40
2024-05-09T08:25:30.336Z,8.98
2024-05-09T08:26:32.360Z,9.52
2024-05-09T08:27:34.271Z,9.73
2024-05-09T08:28:36.228Z,8.60
2024-05-09T08:29:38.401Z,8.88
2024-05-09T08:30:40.491Z,9.25
2024-05-09T08:31:42.714Z,9.02
2024-05-09T08:32:46.833Z,8.43
2024-05-09T08:33:50.533Z,8.43
2024-05-09T08:34:52.671Z,9.18
2024-05-09T08:35:54.765Z,8.98
2024-05-09T08:36:57.799Z,8.98
2024-05-09T08:38:04.772Z,9.13
2024-05-09T08:39:06.896Z,8.88
2024-05-09T08:40:19.899Z,8.18
2024-05-09T08:41:32.276Z,8.63
2024-05-09T08:42:37.958Z,8.20
2024-05-09T08:43:42.145Z,7.68
2024-05-09T08:44:44.769Z,7.13
2024-05-09T08:45:52.095Z,6.97
2024-05-09T08:46:54.202Z,7.53
2024-05-09T08:47:59.602Z,7.50
2024-05-09T08:49:03.430Z,7.55
2024-05-09T08:50:13.584Z,7.30
2024-05-09T08:51:18.824Z,7.40
2024-05-09T08:52:22.954Z,7.22
2024-05-09T08:53:27.437Z,7.40
2024-05-09T08:54:30.699Z,7.15
2024-05-09T08:55:32.721Z,6.68
2024-05-09T08:56:39.296Z,7.03
2024-05-09T08:57:41.625Z,7.18
2024-05-09T08:58:48.153Z,7.10
2024-05-09T08:59:55.861Z,6.65
2024-05-09T09:01:00.467Z,6.90
2024-05-09T09:02:04.804Z,6.25
2024-05-09T09:03:09.817Z,6.32
2024-05-09T09:04:13.907Z,6.35
2024-05-09T09:05:17.432Z,6.20
2024-05-09T09:06:21.918Z,5.97
2024-05-09T09:07:28.657Z,6.13
2024-05-09T09:08:30.687Z,6.28
2024-05-09T09:09:33.021Z,6.20
2024-05-09T09:10:35.434Z,5.68
2024-05-09T09:11:37.699Z,6.28
2024-05-09T09:12:40.734Z,5.80
2024-05-09T09:13:42.629Z,6.60
2024-05-09T09:14:44.658Z,6.60
2024-05-09T09:15:50.365Z,6.15
2024-05-09T09:16:53.230Z,5.88
2024-05-09T09:17:59.483Z,5.65
2024-05-09T09:19:04.345Z,5.30
2024-05-09T09:20:14.484Z,5.22
2024-05-09T09:21:22.162Z,5.85
2024-05-09T09:22:24.018Z,5.63
2024-05-09T09:23:30.557Z,5.57
2024-05-09T09:24:32.809Z,5.53
2024-05-09T09:25:35.061Z,5.57
2024-05-09T09:26:36.906Z,5.95
2024-05-09T09:27:39.455Z,6.53
2024-05-09T09:28:41.435Z,5.72
2024-05-09T09:29:43.359Z,5.90
2024-05-09T09:30:46.022Z,5.55
2024-05-09T09:31:58.301Z,6.10
2024-05-09T09:34:07.528Z,5.38
2024-05-09T09:35:09.722Z,5.65
2024-05-09T09:36:14.613Z,5.28
2024-05-09T09:37:20.992Z,5.10
2024-05-09T09:38:23.957Z,5.00
2024-05-09T09:39:28.591Z,5.18
2024-05-09T09:40:37.550Z,5.60
2024-05-09T09:41:47.819Z,5.38
2024-05-09T09:42:50.453Z,5.20
2024-05-09T09:43:53.641Z,5.40
2024-05-09T09:45:04.439Z,4.70
2024-05-09T09:46:12.292Z,5.18
2024-05-09T09:47:20.951Z,5.20
2024-05-09T09:48:26.605Z,5.40
2024-05-09T09:49:32.341Z,5.72
2024-05-09T09:50:35.671Z,5.70
2024-05-09T09:51:43.569Z,5.05
2024-05-09T09:52:46.631Z,5.20
2024-05-09T09:53:50.581Z,5.00
2024-05-09T09:54:54.096Z,6.63
2024-05-09T09:55:57.158Z,5.40
2024-05-09T09:56:59.935Z,6.55
2024-05-09T09:58:06.462Z,6.25
2024-05-09T09:59:10.081Z,4.80
2024-05-09T10:02:24.126Z,5.35
2024-05-09T10:03:27.457Z,5.07
2024-05-09T10:04:31.063Z,4.80
2024-05-09T10:05:34.285Z,4.45
2024-05-09T10:06:42.727Z,4.68
2024-05-09T10:07:46.787Z,4.90
2024-05-09T10:08:49.642Z,5.53
2024-05-09T10:09:56.211Z,4.97
2024-05-09T10:10:58.338Z,4.93
2024-05-09T10:12:12.526Z,4.72
2024-05-09T10:13:16.929Z,5.07
2024-05-09T10:14:22.330Z,4.80
2024-05-09T10:15:24.187Z,4.80
2024-05-09T10:16:31.168Z,5.00
2024-05-09T10:17:34.010Z,4.93
2024-05-09T10:18:37.191Z,4.57
2024-05-09T10:19:39.341Z,4.63
2024-05-09T10:20:46.180Z,4.85
2024-05-09T10:21:48.109Z,4.50
2024-05-09T10:22:52.446Z,4.50
2024-05-09T10:23:57.678Z,4.10
2024-05-09T10:25:09.556Z,5.00
2024-05-09T10:26:16.040Z,4.40
2024-05-09T10:27:28.556Z,4.45
2024-05-09T10:28:35.569Z,4.43
2024-05-09T10:29:37.876Z,4.50
2024-05-09T10:30:40.042Z,4.60
2024-05-09T10:31:45.900Z,4.72
2024-05-09T10:32:53.678Z,4.90
2024-05-09T10:33:56.173Z,4.43
2024-05-09T10:35:06.632Z,4.75
2024-05-09T10:36:12.953Z,4.50
2024-05-09T10:37:14.985Z,4.70
2024-05-09T10:38:19.869Z,5.22
2024-05-09T10:39:22.169Z,5.10
2024-05-09T10:40:29.365Z,4.20
2024-05-09T10:41:33.757Z,4.68
2024-05-09T10:42:39.251Z,4.63
2024-05-09T10:43:42.043Z,4.80
2024-05-09T10:44:43.844Z,4.63
2024-05-09T10:45:45.874Z,4.90
2024-05-09T10:46:50.787Z,4.60
2024-05-09T10:47:52.858Z,4.82
2024-05-09T10:48:55.148Z,5.05
2024-05-09T10:49:57.320Z,4.82
2024-05-09T10:51:01.992Z,5.05
2024-05-09T10:52:08.627Z,4.47
2024-05-09T10:53:10.586Z,4.95
2024-05-09T10:54:12.574Z,4.20
2024-05-09T10:55:14.658Z,4.65
2024-05-09T10:56:17.532Z,4.45
2024-05-09T10:57:20.372Z,4.65
2024-05-09T10:58:22.543Z,4.32
2024-05-09T10:59:33.023Z,4.30
2024-05-09T11:00:37.721Z,4.30
2024-05-09T11:01:40.538Z,4.25
2024-05-09T11:02:44.236Z,4.32
2024-05-09T11:03:49.920Z,4.40
2024-05-09T11:04:53.188Z,4.20
2024-05-09T11:05:58.052Z,4.40
2024-05-09T11:07:05.280Z,4.57
2024-05-09T11:08:10.964Z,4.30
2024-05-09T11:09:15.451Z,4.50
2024-05-09T11:10:24.900Z,4.60
2024-05-09T11:11:30.213Z,4.40
2024-05-09T11:12:32.378Z,4.30
2024-05-09T11:13:36.110Z,4.18
2024-05-09T11:14:38.030Z,4.20
2024-05-09T11:15:45.180Z,4.75
2024-05-09T11:16:47.170Z,4.20
2024-05-09T11:17:51.555Z,4.43
2024-05-09T11:18:55.932Z,4.43
2024-05-09T11:20:00.674Z,4.45
2024-05-09T11:21:03.497Z,4.43
2024-05-09T11:22:06.184Z,4.57
2024-05-09T11:23:08.301Z,4.53
2024-05-09T11:24:11.579Z,4.60
2024-05-09T11:25:15.980Z,4.63
2024-05-09T11:26:22.342Z,4.72
2024-05-09T11:27:26.747Z,4.55
2024-05-09T11:28:30.541Z,4.45
2024-05-09T11:29:39.554Z,3.75
2024-05-09T11:30:43.710Z,4.00
2024-05-09T11:31:46.956Z,4.38
2024-05-09T11:32:49.320Z,4.40
2024-05-09T11:33:54.671Z,4.75
2024-05-09T11:34:56.728Z,5.20
2024-05-09T11:36:00.753Z,4.45
2024-05-09T11:37:04.548Z,4.97
2024-05-09T11:38:06.644Z,4.50
2024-05-09T11:39:09.153Z,4.30
2024-05-09T11:40:17.073Z,4.45
2024-05-09T11:41:27.287Z,4.28
2024-05-09T11:42:29.174Z,4.47
2024-05-09T11:43:31.650Z,4.55
2024-05-09T11:44:33.637Z,4.22
2024-05-09T11:45:35.559Z,4.18
2024-05-09T11:46:37.647Z,4.47
2024-05-09T11:47:39.879Z,4.00
2024-05-09T11:48:41.984Z,4.50
2024-05-09T11:49:44.188Z,4.60
2024-05-09T11:50:46.126Z,4.60
2024-05-09T11:51:48.049Z,4.40
2024-05-09T11:52:49.942Z,4.38
2024-05-09T11:53:54.168Z,4.32
2024-05-09T11:54:56.176Z,4.28
2024-05-09T11:55:58.119Z,4.13
2024-05-09T11:57:02.382Z,3.97
2024-05-09T11:58:04.986Z,4.20
2024-05-09T11:59:09.736Z,4.10
2024-05-09T12:00:18.192Z,4.22
2024-05-09T12:01:27.999Z,4.03
2024-05-09T12:02:30.389Z,4.40
2024-05-09T12:03:35.433Z,4.18
2024-05-09T12:04:37.569Z,4.35
2024-05-09T12:05:39.814Z,4.15
2024-05-09T12:06:41.782Z,3.90
2024-05-09T12:07:43.772Z,4.28
2024-05-09T12:08:45.800Z,4.07
2024-05-09T12:09:47.721Z,3.83
2024-05-09T12:10:49.988Z,4.00
2024-05-09T12:11:52.204Z,3.63
2024-05-09T12:12:54.103Z,3.55
2024-05-09T12:13:55.944Z,3.50
2024-05-09T12:14:57.870Z,3.50
2024-05-09T12:15:59.848Z,3.80
2024-05-09T12:17:03.824Z,3.80
2024-05-09T12:18:07.154Z,3.83
2024-05-09T12:19:09.988Z,3.63
2024-05-09T12:20:21.011Z,3.88
2024-05-09T12:21:30.476Z,4.13
2024-05-09T12:22:34.719Z,3.55
2024-05-09T12:23:41.203Z,3.85
2024-05-09T12:24:45.569Z,4.10
2024-05-09T12:25:47.579Z,3.70
2024-05-09T12:26:49.584Z,3.80
2024-05-09T12:27:51.904Z,3.50
2024-05-09T12:28:53.899Z,3.97
2024-05-09T12:29:55.784Z,3.72
2024-05-09T12:30:57.791Z,3.65
2024-05-09T12:32:00.038Z,3.50
2024-05-09T12:33:04.794Z,3.45
2024-05-09T12:34:07.036Z,3.20
2024-05-09T12:35:08.927Z,3.55
2024-05-09T12:36:11.063Z,3.70
2024-05-09T12:37:13.915Z,3.20
2024-05-09T12:38:20.794Z,3.00
2024-05-09T12:39:22.675Z,3.20
2024-05-09T12:40:35.416Z,3.38
2024-05-09T12:41:39.914Z,3.40
2024-05-09T12:42:41.966Z,3.60
2024-05-09T12:43:44.084Z,3.55
2024-05-09T12:44:46.010Z,3.60
2024-05-09T12:45:47.891Z,3.58
2024-05-09T12:46:50.002Z,3.58
2024-05-09T12:47:54.215Z,3.33
2024-05-09T12:48:56.481Z,3.67
2024-05-09T12:49:58.809Z,3.45
2024-05-09T12:51:02.940Z,3.33
2024-05-09T12:52:05.125Z,3.38
2024-05-09T12:53:07.186Z,3.50
2024-05-09T12:54:11.330Z,3.35
2024-05-09T12:55:15.540Z,3.40
2024-05-09T12:56:17.607Z,3.25
2024-05-09T12:57:19.558Z,3.38
2024-05-09T12:58:22.617Z,3.38
2024-05-09T12:59:24.823Z,3.20
2024-05-09T13:02:23.032Z,3.50
2024-05-09T13:03:25.487Z,3.30
2024-05-09T13:04:27.434Z,3.50
2024-05-09T13:05:32.408Z,3.47
2024-05-09T13:06:34.605Z,3.20
2024-05-09T13:07:38.862Z,3.63
2024-05-09T13:08:40.836Z,3.30
2024-05-09T13:09:45.440Z,3.50
2024-05-09T13:10:48.058Z,3.55
2024-05-09T13:11:50.046Z,3.25
2024-05-09T13:12:52.681Z,2.95
2024-05-09T13:13:54.665Z,3.72
2024-05-09T13:14:56.547Z,3.28
2024-05-09T13:15:58.622Z,3.50
2024-05-09T13:17:00.654Z,3.50
2024-05-09T13:18:04.063Z,3.42
2024-05-09T13:19:06.152Z,3.40
2024-05-09T13:20:12.007Z,3.15
2024-05-09T13:21:20.386Z,3.13
2024-05-09T13:22:23.722Z,3.13
2024-05-09T13:23:25.610Z,3.20
2024-05-09T13:24:27.516Z,3.20
2024-05-09T13:25:29.627Z,3.50
2024-05-09T13:26:34.134Z,3.35
2024-05-09T13:27:36.178Z,3.05
2024-05-09T13:28:38.106Z,2.78
2024-05-09T13:29:42.812Z,3.13
2024-05-09T13:30:46.083Z,3.13
2024-05-09T13:31:48.050Z,3.00
2024-05-09T13:32:50.000Z,2.85
2024-05-09T13:33:52.231Z,2.90
2024-05-09T13:34:55.373Z,3.08
2024-05-09T13:35:57.250Z,3.28
2024-05-09T13:37:01.761Z,2.90
2024-05-09T13:38:04.793Z,3.03
2024-05-09T13:39:07.261Z,3.53
2024-05-09T13:40:12.138Z,3.30
2024-05-09T13:41:16.306Z,3.28
2024-05-09T13:42:18.144Z,3.00
2024-05-09T13:43:23.443Z,3.13
2024-05-09T13:44:25.464Z,3.22
2024-05-09T13:45:30.555Z,3.22
2024-05-09T13:46:32.928Z,2.92
2024-05-09T13:47:35.120Z,2.72
2024-05-09T13:48:37.248Z,3.20
2024-05-09T13:49:39.324Z,3.00
2024-05-09T13:50:41.583Z,3.00
2024-05-09T13:51:43.619Z,2.90
2024-05-09T13:52:45.451Z,3.13
2024-05-09T13:53:47.394Z,3.03
2024-05-09T13:54:49.417Z,3.17
2024-05-09T13:55:51.559Z,2.90
2024-05-09T13:56:53.645Z,2.90
2024-05-09T13:57:56.015Z,2.90
2024-05-09T13:59:00.200Z,3.13
2024-05-09T14:00:03.628Z,3.25
2024-05-09T14:02:54.573Z,2.80
2024-05-09T14:03:58.858Z,2.88
2024-05-09T14:05:00.990Z,3.00
2024-05-09T14:06:03.069Z,3.10
2024-05-09T14:07:07.639Z,2.88
2024-05-09T14:08:10.204Z,2.97
2024-05-09T14:09:12.129Z,2.97
2024-05-09T14:10:23.438Z,2.70
2024-05-09T14:11:31.254Z,2.80
2024-05-09T14:12:35.336Z,3.03
2024-05-09T14:13:37.335Z,3.20
2024-05-09T14:14:39.150Z,2.72
2024-05-09T14:15:43.581Z,3.00
2024-05-09T14:16:45.852Z,3.00
2024-05-09T14:17:48.392Z,2.58